Time;durP1;ratioP1;P1;durP2;ratioP2;P2;SDS_P1;SDS_P2;PMS_P1;PMS_P2;Temp;Humidity;BMP_temperature;BMP_pressure;BME280_temperature;BME280_humidity;BME280_pressure;Samples;Min_cycle;Max_cycle;Signal;HPM_P1;HPM_P2
2021/09/08 00:28:53;;;;;;;14.10;11.30;;;21.70;3.30;;;;;;4860773;29;20198;-85
2021/09/08 00:35:55;;;;;;;;;;;;;;;;;;;;;
2021/09/08 00:46:07;;;;;;;;;;;;;;;;;;;;;
2021/09/08 00:49:22;;;;;;;16.20;11.97;;;21.40;13.90;;;;;;4882781;29;20251;-86
2021/09/08 00:52:20;;;;;;;13.93;12.33;;;21.40;15.30;;;;;;4873588;29;20196;-85
2021/09/08 00:55:52;;;;;;;;;;;;;;;;;;;;;
2021/09/08 01:05:20;;;;;;;18.07;13.23;;;21.40;16.80;;;;;;4976077;28;20181;-84
2021/09/08 01:08:41;;;;;;;15.40;12.50;;;21.20;19.80;;;;;;4978775;28;20713;-85
2021/09/08 01:12:21;;;;;;;18.57;13.20;;;21.10;23.50;;;;;;4977428;28;20197;-85
2021/09/08 01:14:47;;;;;;;16.87;12.50;;;21.30;21.20;;;;;;5017869;28;20228;-85
2021/09/08 01:18:08;;;;;;;;;;;;;;;;;;;;;
2021/09/08 01:21:17;;;;;;;14.80;12.63;;;21.30;22.50;;;;;;4981686;28;20282;-84
2021/09/08 01:24:22;;;;;;;17.73;13.03;;;21.30;23.90;;;;;;5004421;28;20587;-85
2021/09/08 01:27:25;;;;;;;16.83;12.63;;;21.40;22.30;;;;;;5001867;28;20645;-85
2021/09/08 01:33:18;;;;;;;17.20;13.10;;;21.30;24.10;;;;;;5002385;28;20179;-84
2021/09/08 01:35:48;;;;;;;14.87;12.53;;;21.20;28.00;;;;;;5000625;28;20182;-85
2021/09/08 01:38:37;;;;;;;15.67;13.47;;;21.30;24.80;;;;;;5015517;28;20177;-84
2021/09/08 01:41:41;;;;;;;17.13;13.10;;;21.20;24.50;;;;;;5011723;28;20206;-84
2021/09/08 01:44:07;;;;;;;19.47;13.60;;;20.90;33.30;;;;;;4922441;29;20196;-84
2021/09/08 01:46:59;;;;;;;16.20;13.63;;;20.90;35.10;;;;;;5005718;28;20233;-84
2021/09/08 01:57:16;;;;;;;20.13;13.80;;;20.70;43.60;;;;;;5001476;28;20242;-85
2021/09/08 02:03:00;;;;;;;18.97;14.43;;;20.60;45.20;;;;;;5015619;28;20191;-84
2021/09/08 02:15:33;;;;;;;19.50;14.60;;;20.00;58.50;;;;;;4998320;28;20541;-84
2021/09/08 02:19:04;;;;;;;20.87;15.40;;;19.90;59.80;;;;;;4981221;28;20671;-86
2021/09/08 02:22:38;;;;;;;;;;;;;;;;;;;;;
2021/09/08 02:25:55;;;;;;;18.83;15.07;;;19.60;65.80;;;;;;4999898;28;20262;-84
2021/09/08 02:32:40;;;;;;;17.87;15.27;;;19.60;67.90;;;;;;4940804;28;20221;-85
2021/09/08 02:36:02;;;;;;;21.27;16.30;;;19.80;64.50;;;;;;4921684;29;20193;-85
2021/09/08 02:38:48;;;;;;;19.53;15.70;;;19.90;62.40;;;;;;4947765;28;20634;-84
2021/09/08 02:41:58;;;;;;;20.80;15.60;;;19.80;62.60;;;;;;5002091;28;20237;-84
2021/09/08 02:44:24;;;;;;;19.53;15.27;;;19.70;63.10;;;;;;5001848;28;20179;-84
2021/09/08 02:47:17;;;;;;;20.50;15.80;;;19.40;68.30;;;;;;5000373;28;20178;-85
2021/09/08 02:49:44;;;;;;;20.20;15.73;;;19.50;70.60;;;;;;4999707;28;20171;-85
2021/09/08 02:52:17;;;;;;;20.63;16.07;;;19.80;68.10;;;;;;4999413;28;20175;-84
2021/09/08 03:05:16;;;;;;;22.67;17.03;;;19.70;66.30;;;;;;4997976;28;20190;-85
2021/09/08 03:07:53;;;;;;;23.20;16.53;;;19.50;70.80;;;;;;5003423;28;20175;-84
2021/09/08 03:10:19;;;;;;;21.03;17.03;;;19.40;74.00;;;;;;5003285;28;20635;-84
2021/09/08 03:12:51;;;;;;;20.67;17.47;;;19.30;77.10;;;;;;4999413;28;20175;-84
2021/09/08 03:15:20;;;;;;;22.80;16.53;;;19.20;77.90;;;;;;4999379;28;20206;-84
2021/09/08 03:18:31;;;;;;;19.50;16.90;;;19.20;78.70;;;;;;4997380;28;20194;-84
2021/09/08 03:20:41;;;;;;;21.13;17.37;;;19.20;79.10;;;;;;4995958;28;20314;-84
2021/09/08 03:23:18;;;;;;;25.03;16.73;;;19.30;77.00;;;;;;4997359;28;20175;-85
2021/09/08 03:44:29;;;;;;;;;;;;;;;;;;;;;
2021/09/08 03:46:47;;;;;;;21.43;16.57;;;19.10;80.70;;;;;;4853634;29;20277;-84
2021/09/08 04:03:19;;;;;;;25.53;17.73;;;19.10;80.20;;;;;;4770721;30;20247;-84
2021/09/08 04:05:59;;;;;;;21.93;16.60;;;19.20;78.90;;;;;;4770393;30;20229;-84
2021/09/08 04:16:10;;;;;;;24.60;17.43;;;18.90;81.50;;;;;;4840420;29;20192;-84
2021/09/08 04:46:08;;;;;;;25.30;17.77;;;18.70;86.70;;;;;;4849070;29;20253;-84
2021/09/08 05:17:24;;;;;;;36.70;19.80;;;17.90;94.80;;;;;;4788732;30;20185;-85
2021/09/08 05:27:25;;;;;;;35.80;18.57;;;18.10;93.70;;;;;;4841985;29;20721;-84
2021/09/08 05:37:12;;;;;;;28.37;16.77;;;18.50;88.80;;;;;;4847010;29;20228;-84
2021/09/08 05:39:38;;;;;;;29.00;17.17;;;18.60;87.50;;;;;;4890167;29;20193;-83
2021/09/08 05:42:04;;;;;;;25.67;16.27;;;18.60;85.10;;;;;;4897521;29;20178;-81
2021/09/08 05:44:35;;;;;;;24.93;16.13;;;18.70;84.00;;;;;;4900209;29;20718;-84
2021/09/08 05:47:03;;;;;;;26.40;16.87;;;18.90;81.40;;;;;;4979983;28;20191;-83
2021/09/08 05:52:27;;;;;;;23.23;15.83;;;19.00;77.80;;;;;;4998013;28;20201;-83
2021/09/08 05:55:35;;;;;;;24.97;16.50;;;19.10;75.20;;;;;;5009937;28;20202;-84
2021/09/08 05:58:44;;;;;;;24.33;16.43;;;19.20;71.40;;;;;;4951552;29;20185;-84
2021/09/08 06:01:29;;;;;;;22.37;17.00;;;19.20;68.40;;;;;;4945292;29;20211;-82
2021/09/08 06:04:10;;;;;;;19.77;15.27;;;19.20;68.40;;;;;;4942511;29;20192;-83
2021/09/08 06:06:36;;;;;;;26.30;16.87;;;19.20;67.20;;;;;;4939885;29;20657;-83
2021/09/08 06:16:12;;;;;;;23.67;15.83;;;19.40;61.10;;;;;;4899984;29;20194;-84
2021/09/08 06:19:21;;;;;;;30.93;16.37;;;19.50;59.80;;;;;;4897702;29;20579;-84
2021/09/08 06:22:20;;;;;;;;;;;;;;;;;;;;;
2021/09/08 06:28:56;;;;;;;21.77;15.73;;;19.70;51.30;;;;;;5010606;28;20232;-85
2021/09/08 06:38:56;;;;;;;;;;;;;;;;;;;;;
2021/09/08 06:44:55;;;;;;;;;;;;;;;;;;;;;
2021/09/08 06:48:02;;;;;;;21.50;15.43;;;19.70;50.60;;;;;;5017489;28;20247;-82
2021/09/08 06:50:43;;;;;;;27.00;17.03;;;19.90;48.00;;;;;;5002187;28;20193;-82
2021/09/08 06:57:22;;;;;;;22.77;14.80;;;20.10;42.20;;;;;;5025299;28;20296;-82
2021/09/08 06:59:54;;;;;;;22.23;15.30;;;20.10;43.90;;;;;;5012056;28;20193;-83
2021/09/08 07:02:52;;;;;;;20.63;16.33;;;20.10;42.60;;;;;;5022385;28;20191;-82
2021/09/08 07:05:21;;;;;;;24.67;15.30;;;20.20;39.50;;;;;;5000176;28;20190;-80
2021/09/08 07:08:19;;;;;;;22.07;15.20;;;20.30;35.70;;;;;;5030130;28;20234;-83
2021/09/08 07:11:20;;;;;;;22.63;15.13;;;20.40;33.00;;;;;;5005666;28;20222;-82
2021/09/08 07:13:57;;;;;;;19.40;15.70;;;20.60;31.10;;;;;;5006139;28;20184;-83
2021/09/08 07:17:09;;;;;;;19.97;15.73;;;20.90;26.80;;;;;;5000773;28;20169;-82
2021/09/08 07:23:02;;;;;;;20.47;14.03;;;21.10;22.00;;;;;;5007690;28;20720;-83
2021/09/08 07:25:35;;;;;;;19.93;15.13;;;21.20;16.80;;;;;;5018067;28;20217;-83
2021/09/08 07:28:08;;;;;;;21.47;14.77;;;21.40;11.40;;;;;;5035044;28;20165;-85
2021/09/08 07:31:00;;;;;;;20.53;14.83;;;21.60;8.50;;;;;;5033385;28;20189;-85
2021/09/08 07:33:43;;;;;;;18.47;14.20;;;21.80;1.10;;;;;;5009612;28;20218;-85
2021/09/08 07:36:20;;;;;;;18.63;13.73;;;22.00;1.00;;;;;;4998915;28;20183;-85
2021/09/08 07:38:49;;;;;;;19.03;13.57;;;22.00;1.00;;;;;;5018038;28;20154;-85
2021/09/08 07:41:21;;;;;;;20.67;13.17;;;22.10;1.00;;;;;;5017886;28;20230;-83
2021/09/08 07:43:48;;;;;;;13.97;11.87;;;22.20;1.00;;;;;;5015878;28;20167;-82
2021/09/08 07:46:16;;;;;;;15.03;10.47;;;22.30;1.00;;;;;;5015517;28;20744;-81
2021/09/08 07:49:08;;;;;;;17.70;12.47;;;22.40;1.00;;;;;;5014371;28;20204;-84
2021/09/08 07:51:34;;;;;;;12.90;10.93;;;22.50;1.00;;;;;;5016881;28;20183;-83
2021/09/08 07:54:10;;;;;;;21.57;12.20;;;22.80;1.00;;;;;;5017579;28;20283;-81
2021/09/08 07:56:36;;;;;;;20.23;11.53;;;22.70;1.00;;;;;;5016192;28;20191;-82
2021/09/08 07:59:27;;;;;;;13.70;10.50;;;22.90;1.00;;;;;;5015435;28;20184;-83
2021/09/08 08:02:06;;;;;;;16.57;11.10;;;22.90;1.00;;;;;;5033302;28;20299;-82
2021/09/08 08:04:32;;;;;;;26.93;11.43;;;23.30;1.00;;;;;;5030587;28;20179;-82
2021/09/08 08:06:58;;;;;;;16.63;10.97;;;23.40;1.00;;;;;;5017474;28;20190;-87
2021/09/08 08:10:07;;;;;;;16.20;10.73;;;23.50;1.00;;;;;;5020681;28;20208;-86
2021/09/08 08:15:43;;;;;;;13.97;10.03;;;23.70;1.00;;;;;;4982704;28;20181;-83
2021/09/08 08:18:23;;;;;;;17.80;10.27;;;23.80;1.00;;;;;;5003580;28;20204;-77
2021/09/08 08:21:43;;;;;;;15.97;9.90;;;23.90;1.00;;;;;;5014617;28;20208;-79
2021/09/08 08:24:52;;;;;;;12.83;9.70;;;24.10;1.00;;;;;;4991739;28;20186;-78
2021/09/08 08:27:27;;;;;;;15.97;9.57;;;24.00;1.00;;;;;;5031125;28;20241;-81
2021/09/08 08:30:04;;;;;;;12.63;9.17;;;24.10;1.00;;;;;;5009392;28;20185;-80
2021/09/08 08:32:32;;;;;;;14.60;10.00;;;24.20;1.00;;;;;;4995194;28;20625;-79
2021/09/08 08:35:00;;;;;;;14.47;9.37;;;24.40;1.00;;;;;;5005767;28;20182;-82
2021/09/08 08:37:26;;;;;;;13.03;9.43;;;24.60;1.00;;;;;;5012416;28;20252;-80
2021/09/08 08:39:52;;;;;;;11.67;8.77;;;24.70;99.90;;;;;;5012992;28;20304;-79
2021/09/08 08:42:46;;;;;;;12.33;8.70;;;25.00;99.90;;;;;;5013201;28;20232;-79
2021/09/08 08:45:17;;;;;;;10.73;8.83;;;25.20;99.90;;;;;;5011931;28;20650;-79
2021/09/08 08:47:54;;;;;;;10.43;9.00;;;25.40;82.80;;;;;;5013014;28;20216;-82
2021/09/08 08:50:23;;;;;;;12.47;10.00;;;25.50;99.90;;;;;;5012159;28;20188;-80
2021/09/08 08:52:49;;;;;;;15.47;9.00;;;25.60;99.90;;;;;;5012604;28;20158;-79
2021/09/08 08:55:15;;;;;;;13.27;8.80;;;25.60;1.00;;;;;;5012417;28;20177;-79
2021/09/08 08:58:00;;;;;;;18.60;9.33;;;25.40;99.90;;;;;;5008568;28;20174;-89
2021/09/08 09:00:29;;;;;;;10.57;8.53;;;25.30;1.00;;;;;;5015560;28;20245;-89
2021/09/08 09:03:16;;;;;;;11.93;8.53;;;25.40;1.00;;;;;;5035029;28;20324;-88
2021/09/08 09:06:04;;;;;;;13.33;8.17;;;25.70;99.90;;;;;;5015268;28;20182;-89
2021/09/08 09:09:11;;;;;;;11.60;8.73;;;25.50;99.90;;;;;;5013106;28;20175;-92
2021/09/08 09:11:55;;;;;;;13.37;8.73;;;25.80;99.90;;;;;;5009929;28;20197;-93
2021/09/08 09:14:32;;;;;;;11.40;8.37;;;25.90;99.90;;;;;;5002044;28;20226;-91
2021/09/08 09:17:01;;;;;;;11.90;7.67;;;26.00;99.90;;;;;;5017684;28;20182;-92
2021/09/08 09:19:45;;;;;;;9.10;7.60;;;26.00;1.00;;;;;;5003664;28;20179;-95
2021/09/08 09:22:18;;;;;;;13.90;8.50;;;26.00;1.00;;;;;;5014106;28;20622;-92
2021/09/08 09:24:59;;;;;;;14.27;7.90;;;25.90;97.40;;;;;;5014680;28;20181;-92
2021/09/08 09:27:27;;;;;;;9.90;8.27;;;26.00;1.00;;;;;;4999049;28;20183;-92
2021/09/08 09:30:06;;;;;;;12.00;8.10;;;26.30;1.00;;;;;;5014020;28;20189;-91
2021/09/08 09:32:46;;;;;;;13.53;8.33;;;26.50;99.90;;;;;;5016167;28;20284;-91
2021/09/08 09:35:18;;;;;;;13.67;8.20;;;26.70;99.90;;;;;;5020676;28;20563;-91
2021/09/08 09:37:57;;;;;;;9.47;8.20;;;26.70;99.90;;;;;;5021505;28;20176;-92
2021/09/08 09:40:35;;;;;;;9.97;8.77;;;26.60;99.90;;;;;;5000649;28;20565;-92
2021/09/08 09:43:09;;;;;;;14.27;8.97;;;26.70;99.90;;;;;;5002161;28;20289;-92
2021/09/08 09:45:41;;;;;;;10.20;7.77;;;26.80;99.90;;;;;;5001580;28;20189;-92
2021/09/08 09:48:08;;;;;;;10.77;8.33;;;26.80;99.90;;;;;;5008972;28;20158;-92
2021/09/08 09:50:39;;;;;;;9.50;8.00;;;26.80;1.00;;;;;;5022423;28;20573;-92
2021/09/08 09:53:07;;;;;;;9.13;7.80;;;26.70;45.40;;;;;;5020545;28;20197;-92
2021/09/08 09:55:36;;;;;;;12.17;8.33;;;26.80;99.90;;;;;;5033066;28;20171;-93
2021/09/08 09:58:02;;;;;;;10.80;7.87;;;26.80;99.90;;;;;;5020137;28;20642;-92
2021/09/08 10:00:30;;;;;;;10.17;8.53;;;26.40;1.00;;;;;;5029448;28;20227;-92
2021/09/08 10:02:57;;;;;;;11.63;7.70;;;26.30;1.00;;;;;;5053314;28;20179;-92
2021/09/08 10:05:22;;;;;;;10.17;8.13;;;26.50;1.00;;;;;;5036741;28;20192;-91
2021/09/08 10:07:50;;;;;;;11.00;8.07;;;26.80;99.90;;;;;;5050517;28;20609;-91
2021/09/08 10:10:31;;;;;;;11.43;8.00;;;26.90;1.00;;;;;;5038203;28;20231;-92
2021/09/08 10:13:17;;;;;;;10.87;8.40;;;26.60;1.00;;;;;;5039361;28;20178;-91
2021/09/08 10:15:53;;;;;;;9.40;8.03;;;26.50;99.90;;;;;;5038641;28;20191;-91
2021/09/08 10:18:25;;;;;;;11.13;8.23;;;26.40;1.00;;;;;;5038712;28;20189;-92
2021/09/08 10:21:08;;;;;;;11.00;8.17;;;26.30;1.00;;;;;;5020144;28;20235;-92
2021/09/08 10:23:56;;;;;;;11.90;8.70;;;26.20;99.90;;;;;;5037835;28;20168;-90
2021/09/08 10:26:55;;;;;;;;;;;;;;;;;;;;;
2021/09/08 10:29:29;;;;;;;13.30;8.47;;;26.20;9.30;;;;;;5039319;28;20244;-87
2021/09/08 10:32:02;;;;;;;11.40;7.90;;;26.20;99.90;;;;;;5036822;28;20207;-88
2021/09/08 10:34:47;;;;;;;12.23;8.17;;;26.40;1.00;;;;;;5043439;28;20174;-90
2021/09/08 10:37:13;;;;;;;12.63;8.53;;;26.50;99.90;;;;;;5032251;28;20250;-88
2021/09/08 10:39:42;;;;;;;10.77;8.43;;;26.70;26.60;;;;;;5023029;28;20153;-89
2021/09/08 10:42:08;;;;;;;9.77;8.17;;;26.70;1.00;;;;;;5022361;28;20719;-89
2021/09/08 10:44:53;;;;;;;9.73;8.17;;;26.70;99.90;;;;;;5025358;28;20200;-88
2021/09/08 10:48:10;;;;;;;13.70;8.27;;;26.70;1.00;;;;;;5031218;28;20201;-87
2021/09/08 10:50:41;;;;;;;8.20;7.30;;;26.80;99.90;;;;;;5023089;28;20190;-88
2021/09/08 10:53:21;;;;;;;14.17;8.77;;;27.20;99.90;;;;;;5023142;28;20209;-88
2021/09/08 10:55:58;;;;;;;12.43;8.47;;;27.00;1.00;;;;;;5012347;28;20170;-90
2021/09/08 10:59:00;;;;;;;14.63;8.37;;;26.80;99.90;;;;;;5010139;28;20179;-89
2021/09/08 11:04:23;;;;;;;10.90;7.83;;;27.00;99.90;;;;;;5143821;22;20247;-89
2021/09/08 11:06:49;;;;;;;10.47;7.47;;;27.20;1.00;;;;;;5005451;28;20185;-89
2021/09/08 11:09:18;;;;;;;12.10;7.83;;;27.30;1.00;;;;;;5021404;28;20177;-89
2021/09/08 11:11:52;;;;;;;11.53;8.17;;;27.40;1.00;;;;;;5007121;28;20178;-90
2021/09/08 11:14:18;;;;;;;16.00;8.43;;;27.60;99.90;;;;;;4999972;28;20188;-89
2021/09/08 11:16:50;;;;;;;10.63;8.53;;;27.60;99.90;;;;;;5009772;28;20495;-93
2021/09/08 11:19:31;;;;;;;11.07;7.83;;;27.60;1.00;;;;;;5032965;22;20161;-87
2021/09/08 11:21:58;;;;;;;12.93;8.33;;;27.30;18.70;;;;;;5021320;28;20252;-89
2021/09/08 11:24:29;;;;;;;8.43;7.43;;;27.20;99.90;;;;;;5022764;28;20268;-88
2021/09/08 11:27:12;;;;;;;9.93;7.50;;;27.20;99.90;;;;;;5020477;28;20173;-90
2021/09/08 11:29:39;;;;;;;10.60;7.67;;;27.30;99.90;;;;;;5015181;28;20166;-88
2021/09/08 11:32:09;;;;;;;9.40;7.27;;;27.50;99.90;;;;;;5017103;28;20171;-88
2021/09/08 11:34:49;;;;;;;9.10;7.33;;;27.90;16.70;;;;;;5028175;28;20181;-87
2021/09/08 11:37:20;;;;;;;11.13;7.57;;;28.00;99.90;;;;;;5018243;28;20650;-87
2021/09/08 11:39:48;;;;;;;11.87;7.07;;;28.10;99.90;;;;;;5026791;28;20169;-90
2021/09/08 11:42:16;;;;;;;10.83;7.80;;;27.90;68.90;;;;;;5015823;28;20205;-89
2021/09/08 11:44:42;;;;;;;10.20;7.10;;;27.90;99.90;;;;;;5030422;28;20264;-87
2021/09/08 11:47:17;;;;;;;8.47;6.90;;;27.80;12.80;;;;;;5047524;28;20220;-90
2021/09/08 11:49:44;;;;;;;12.53;7.40;;;27.80;99.90;;;;;;5007007;28;20249;-87
2021/09/08 11:52:18;;;;;;;7.17;6.43;;;27.70;73.70;;;;;;5028208;28;20239;-87
2021/09/08 11:54:48;;;;;;;10.53;7.00;;;27.60;1.00;;;;;;5007410;28;20173;-88
2021/09/08 11:57:22;;;;;;;18.60;7.90;;;27.80;1.00;;;;;;5006856;28;20190;-88
2021/09/08 11:59:53;;;;;;;11.17;6.90;;;27.90;1.00;;;;;;5013707;28;20181;-86
2021/09/08 12:02:21;;;;;;;13.50;6.67;;;28.10;1.00;;;;;;5027626;28;20255;-86
2021/09/08 12:04:48;;;;;;;11.27;7.27;;;27.90;1.00;;;;;;5009741;28;20178;-87
2021/09/08 12:07:18;;;;;;;7.53;6.20;;;27.90;1.00;;;;;;5011774;28;20169;-88
2021/09/08 12:10:01;;;;;;;8.63;6.27;;;27.90;1.00;;;;;;5029108;28;20195;-88
2021/09/08 12:12:28;;;;;;;8.50;6.27;;;28.00;1.00;;;;;;5023411;28;20181;-89
2021/09/08 12:14:54;;;;;;;7.37;5.83;;;27.90;1.00;;;;;;5007993;28;20181;-93
2021/09/08 12:17:27;;;;;;;7.50;5.63;;;27.70;99.90;;;;;;4987674;28;20666;-89
2021/09/08 12:20:14;;;;;;;8.57;6.03;;;27.90;99.90;;;;;;5003834;28;20209;-92
2021/09/08 12:22:50;;;;;;;14.20;6.77;;;28.20;99.90;;;;;;5015671;28;20212;-92
2021/09/08 12:25:20;;;;;;;10.20;5.68;;;28.40;99.90;;;;;;4996448;28;20167;-91
2021/09/08 12:27:49;;;;;;;9.45;6.03;;;28.20;99.90;;;;;;4990040;28;20218;-88
2021/09/08 12:30:24;;;;;;;7.93;6.00;;;28.40;99.90;;;;;;4987698;28;20167;-91
2021/09/08 12:33:04;;;;;;;13.45;6.85;;;28.40;99.90;;;;;;4997442;28;20624;-89
2021/09/08 12:35:34;;;;;;;9.60;6.22;;;28.20;99.90;;;;;;5021496;28;20212;-88
2021/09/08 12:38:27;;;;;;;8.73;6.00;;;28.10;99.90;;;;;;5021915;28;20180;-90
2021/09/08 12:41:31;;;;;;;8.30;5.90;;;28.00;99.90;;;;;;5000806;28;20221;-89
2021/09/08 12:43:57;;;;;;;9.80;5.72;;;28.00;99.90;;;;;;5006874;28;20185;-92
2021/09/08 12:46:45;;;;;;;11.20;6.27;;;28.10;99.90;;;;;;5008024;28;20171;-90
2021/09/08 12:49:20;;;;;;;9.30;6.17;;;28.00;99.90;;;;;;5022442;28;20503;-91
2021/09/08 12:51:49;;;;;;;11.57;5.97;;;28.10;99.90;;;;;;5023842;28;20697;-92
2021/09/08 12:54:39;;;;;;;8.57;6.17;;;28.40;99.90;;;;;;4998680;28;20208;-90
2021/09/08 12:57:07;;;;;;;10.48;6.53;;;28.60;99.90;;;;;;5014140;28;20437;-90
2021/09/08 12:59:35;;;;;;;6.97;5.73;;;28.80;99.90;;;;;;5020055;28;20193;-89
2021/09/08 13:02:03;;;;;;;13.27;6.70;;;29.00;99.90;;;;;;5014672;28;20765;-89
2021/09/08 13:04:35;;;;;;;13.55;5.93;;;29.30;99.90;;;;;;5010407;28;20173;-92
2021/09/08 13:07:04;;;;;;;10.93;6.40;;;29.50;99.90;;;;;;5005962;28;20620;-90
2021/09/08 13:09:34;;;;;;;8.07;5.63;;;29.50;99.90;;;;;;5008500;28;20175;-88
2021/09/08 13:12:04;;;;;;;7.80;5.25;;;29.50;99.20;;;;;;5006085;28;20189;-88
2021/09/08 13:14:31;;;;;;;7.50;5.22;;;29.30;69.50;;;;;;5013989;28;20174;-88
2021/09/08 13:16:58;;;;;;;8.68;5.65;;;28.90;98.70;;;;;;5019766;28;20296;-91
2021/09/08 13:19:26;;;;;;;7.28;5.35;;;29.00;99.90;;;;;;5021430;28;20170;-94
2021/09/08 13:21:56;;;;;;;12.38;8.50;;;29.20;99.90;;;;;;5018351;28;20235;-92
2021/09/08 13:24:53;;;;;;;8.13;6.13;;;29.50;99.90;;;;;;5029303;28;20167;-95
2021/09/08 13:27:35;;;;;;;9.00;6.30;;;29.70;99.90;;;;;;5034592;28;20170;-94
2021/09/08 13:30:17;;;;;;;8.10;5.57;;;30.00;99.90;;;;;;5018866;28;20167;-92
2021/09/08 13:32:43;;;;;;;7.90;6.53;;;29.80;99.90;;;;;;4989445;28;20166;-92
2021/09/08 13:35:21;;;;;;;7.93;6.93;;;29.90;99.90;;;;;;4993835;28;20174;-92
2021/09/08 13:37:51;;;;;;;7.68;6.32;;;29.80;99.90;;;;;;5005969;28;20294;-93
2021/09/08 13:40:17;;;;;;;10.07;6.38;;;29.70;99.90;;;;;;5011178;28;20236;-92
2021/09/08 13:42:43;;;;;;;8.65;5.97;;;29.90;99.90;;;;;;5014260;28;20213;-92
2021/09/08 13:45:12;;;;;;;8.13;6.07;;;29.90;99.90;;;;;;5024195;28;20186;-92
2021/09/08 13:48:01;;;;;;;7.97;6.70;;;30.00;99.90;;;;;;5026881;28;20189;-92
2021/09/08 13:50:27;;;;;;;8.35;6.18;;;30.30;99.90;;;;;;5028170;28;20688;-93
2021/09/08 13:52:54;;;;;;;8.93;6.43;;;30.40;97.60;;;;;;5018173;28;20154;-90
2021/09/08 13:55:20;;;;;;;6.22;5.63;;;30.50;99.90;;;;;;5030829;28;20185;-90
2021/09/08 13:57:53;;;;;;;8.85;7.10;;;30.40;37.20;;;;;;5022088;28;20175;-93
2021/09/08 14:00:24;;;;;;;6.90;6.28;;;30.40;68.10;;;;;;5018892;28;20205;-94
2021/09/08 14:03:20;;;;;;;9.40;6.45;;;30.40;72.80;;;;;;5005533;28;20217;-91
2021/09/08 14:06:14;;;;;;;8.90;6.70;;;29.90;99.90;;;;;;4998613;28;20170;-91
2021/09/08 14:08:45;;;;;;;12.25;5.85;;;29.80;99.90;;;;;;4995572;28;20177;-92
2021/09/08 14:11:13;;;;;;;9.38;6.78;;;30.00;96.30;;;;;;4996394;28;20159;-91
2021/09/08 14:13:42;;;;;;;8.02;5.75;;;29.50;99.90;;;;;;5019711;28;20183;-92
2021/09/08 14:16:14;;;;;;;12.77;7.10;;;29.40;99.90;;;;;;5036469;28;20150;-89
2021/09/08 14:18:48;;;;;;;8.77;6.22;;;29.60;99.90;;;;;;5013485;28;20182;-89
2021/09/08 14:21:16;;;;;;;16.20;6.68;;;29.70;99.90;;;;;;5007881;28;20210;-89
2021/09/08 14:23:43;;;;;;;8.73;6.53;;;29.60;99.90;;;;;;5021257;28;20185;-92
2021/09/08 14:26:14;;;;;;;9.68;6.10;;;29.40;99.90;;;;;;5036810;28;20186;-92
2021/09/08 14:28:46;;;;;;;8.98;6.28;;;29.20;99.90;;;;;;5022599;28;20177;-93
2021/09/08 14:31:23;;;;;;;8.80;6.13;;;29.10;99.90;;;;;;5026091;28;20217;-91
2021/09/08 14:33:59;;;;;;;9.75;5.60;;;28.80;99.90;;;;;;5027257;28;20628;-94
2021/09/08 14:36:39;;;;;;;8.90;5.97;;;28.90;70.30;;;;;;5014193;28;20185;-91
2021/09/08 14:39:22;;;;;;;8.57;5.65;;;28.90;86.00;;;;;;5028070;28;20146;-93
2021/09/08 14:41:48;;;;;;;6.88;5.53;;;29.40;55.00;;;;;;5017130;28;20701;-92
2021/09/08 14:44:17;;;;;;;7.28;5.85;;;29.50;28.50;;;;;;5008832;28;20177;-94
2021/09/08 14:46:53;;;;;;;8.57;6.03;;;29.80;1.00;;;;;;5020666;28;20162;-92
2021/09/08 14:49:21;;;;;;;7.72;6.05;;;30.00;1.00;;;;;;5018271;28;20154;-92
2021/09/08 14:51:51;;;;;;;7.22;5.85;;;30.10;1.00;;;;;;5016807;28;20167;-93
2021/09/08 14:54:18;;;;;;;9.77;6.00;;;29.80;1.00;;;;;;5008320;28;20175;-92
2021/09/08 14:56:45;;;;;;;9.77;5.60;;;29.80;1.00;;;;;;5009303;28;20206;-93
2021/09/08 14:59:12;;;;;;;14.25;6.05;;;30.00;1.00;;;;;;5003984;28;20685;-94
2021/09/08 15:01:39;;;;;;;10.20;5.00;;;30.10;1.00;;;;;;5011445;28;20218;-95
2021/09/08 15:04:06;;;;;;;6.57;4.88;;;30.10;1.00;;;;;;5027547;28;20261;-92
2021/09/08 15:06:34;;;;;;;6.95;5.13;;;30.30;1.00;;;;;;5027629;28;20209;-92
2021/09/08 15:09:02;;;;;;;8.32;5.40;;;30.40;1.00;;;;;;5011593;28;20174;-92
2021/09/08 15:11:30;;;;;;;6.95;4.68;;;30.50;1.00;;;;;;5008694;28;20166;-93
2021/09/08 15:13:58;;;;;;;9.32;5.20;;;30.10;1.00;;;;;;5008777;28;20190;-94
2021/09/08 15:16:35;;;;;;;9.55;5.85;;;29.70;1.00;;;;;;5011278;28;20210;-94
2021/09/08 15:19:02;;;;;;;8.80;5.10;;;29.90;1.00;;;;;;5011267;28;20201;-92
2021/09/08 15:21:33;;;;;;;15.98;5.93;;;30.00;1.00;;;;;;5012773;28;20214;-93
2021/09/08 15:24:03;;;;;;;7.30;5.30;;;30.20;1.00;;;;;;5008247;28;20170;-93
2021/09/08 15:26:33;;;;;;;7.53;5.00;;;30.30;1.00;;;;;;5012551;28;20175;-92
2021/09/08 15:29:03;;;;;;;10.15;5.60;;;30.50;1.00;;;;;;5025452;28;20178;-94
2021/09/08 15:31:31;;;;;;;10.30;5.53;;;30.40;1.00;;;;;;5022993;28;20189;-94
2021/09/08 15:34:35;;;;;;;8.18;5.47;;;30.40;1.00;;;;;;4998366;28;20638;-93
2021/09/08 15:37:20;;;;;;;11.73;5.47;;;29.90;1.00;;;;;;5016507;28;20254;-91
2021/09/08 15:39:46;;;;;;;9.80;6.22;;;30.00;1.00;;;;;;5015571;28;20166;-89
2021/09/08 15:42:13;;;;;;;7.10;5.05;;;29.80;1.00;;;;;;5012751;28;20582;-91
2021/09/08 15:44:46;;;;;;;14.40;6.38;;;29.60;1.00;;;;;;5014159;28;20171;-93
2021/09/08 15:47:13;;;;;;;8.88;6.30;;;29.50;1.00;;;;;;4985867;28;20325;-93
2021/09/08 15:49:43;;;;;;;8.88;5.20;;;29.50;1.00;;;;;;5015204;28;20179;-94
2021/09/08 15:52:09;;;;;;;6.85;5.95;;;29.50;1.00;;;;;;5002151;28;20175;-95
2021/09/08 15:54:43;;;;;;;9.27;5.78;;;29.80;1.00;;;;;;5028701;28;20205;-96
2021/09/08 15:57:09;;;;;;;10.35;5.85;;;30.10;1.00;;;;;;5005926;28;20170;-93
2021/09/08 15:59:35;;;;;;;8.40;5.50;;;30.00;1.00;;;;;;5002809;28;20616;-92
2021/09/08 16:02:04;;;;;;;8.38;5.30;;;29.90;1.00;;;;;;5004284;28;20213;-91
2021/09/08 16:04:31;;;;;;;8.52;5.82;;;29.80;1.00;;;;;;5024587;28;20182;-91
2021/09/08 16:06:57;;;;;;;7.55;6.07;;;29.60;1.00;;;;;;5020453;28;20177;-91
2021/09/08 16:09:22;;;;;;;6.40;5.55;;;29.70;1.00;;;;;;5019069;28;20170;-89
2021/09/08 16:11:50;;;;;;;8.00;5.75;;;30.00;1.00;;;;;;4994455;28;20167;-91
2021/09/08 16:14:20;;;;;;;8.18;5.40;;;30.30;1.00;;;;;;5031020;28;20158;-91
2021/09/08 16:16:53;;;;;;;7.57;5.78;;;30.60;1.00;;;;;;5025638;28;20190;-89
2021/09/08 16:19:19;;;;;;;7.30;5.55;;;31.00;1.00;;;;;;5010658;28;20170;-90
2021/09/08 16:21:46;;;;;;;7.93;6.22;;;31.30;1.00;;;;;;5020939;28;20650;-90
2021/09/08 16:24:15;;;;;;;7.78;5.45;;;31.80;1.00;;;;;;5000245;28;20241;-91
2021/09/08 16:26:41;;;;;;;9.07;6.32;;;32.70;1.00;;;;;;5002786;28;20174;-93
2021/09/08 16:29:11;;;;;;;7.82;5.40;;;33.30;1.00;;;;;;5005744;28;20178;-93
2021/09/08 16:31:37;;;;;;;10.68;6.03;;;34.60;1.00;;;;;;5005394;28;20175;-89
2021/09/08 16:34:03;;;;;;;7.80;5.25;;;35.00;1.00;;;;;;5008338;28;20174;-93
2021/09/08 16:36:29;;;;;;;9.25;6.57;;;35.50;1.00;;;;;;5000029;28;20577;-95
2021/09/08 16:38:55;;;;;;;7.00;5.60;;;35.60;1.00;;;;;;5002008;28;20170;-91
2021/09/08 16:41:21;;;;;;;6.15;5.53;;;35.20;1.00;;;;;;5003125;28;20244;-92
2021/09/08 16:43:47;;;;;;;13.77;5.82;;;35.00;1.00;;;;;;5001678;28;20174;-89
2021/09/08 16:46:12;;;;;;;12.88;5.72;;;34.60;1.00;;;;;;5017609;28;20281;-87
2021/09/08 16:48:38;;;;;;;6.88;5.45;;;34.80;1.00;;;;;;5017453;28;20249;-88
2021/09/08 16:51:05;;;;;;;15.15;6.38;;;34.80;1.00;;;;;;4982707;28;20299;-89
2021/09/08 16:53:31;;;;;;;12.27;5.85;;;34.20;1.00;;;;;;4999346;28;20190;-88
2021/09/08 16:55:58;;;;;;;8.30;6.00;;;34.30;1.00;;;;;;4999776;28;20228;-94
2021/09/08 16:58:26;;;;;;;8.48;6.03;;;34.30;1.00;;;;;;4996632;28;20530;-94
2021/09/08 17:00:51;;;;;;;11.50;7.05;;;34.10;1.00;;;;;;4999994;28;20301;-87
2021/09/08 17:03:17;;;;;;;9.18;6.95;;;33.70;1.00;;;;;;4999224;28;20232;-89
2021/09/08 17:05:43;;;;;;;14.27;6.90;;;33.20;1.00;;;;;;4998129;28;20721;-90
2021/09/08 17:08:09;;;;;;;9.18;6.25;;;33.10;1.00;;;;;;5018186;28;20271;-87
2021/09/08 17:10:35;;;;;;;10.13;6.60;;;32.90;1.00;;;;;;4993602;28;20234;-90
2021/09/08 17:13:00;;;;;;;11.40;5.97;;;32.90;1.00;;;;;;5003739;28;20182;-91
2021/09/08 17:15:26;;;;;;;8.50;5.60;;;32.60;1.00;;;;;;5000618;28;20185;-91
2021/09/08 17:17:53;;;;;;;8.73;5.60;;;32.00;1.00;;;;;;5002409;28;20198;-90
2021/09/08 17:20:22;;;;;;;8.75;5.38;;;31.60;1.00;;;;;;5022280;28;20192;-92
2021/09/08 17:22:48;;;;;;;14.10;6.40;;;31.80;1.00;;;;;;5000594;28;20201;-91
2021/09/08 17:25:16;;;;;;;9.27;6.18;;;31.90;1.00;;;;;;5013437;28;20185;-88
2021/09/08 17:27:42;;;;;;;11.23;6.35;;;32.10;1.00;;;;;;5019916;28;20179;-87
2021/09/08 17:30:11;;;;;;;12.75;6.82;;;32.50;1.00;;;;;;5019244;28;20175;-87
2021/09/08 17:32:37;;;;;;;12.73;6.50;;;32.60;1.00;;;;;;5020270;28;20335;-87
2021/09/08 17:35:05;;;;;;;9.23;6.22;;;33.10;1.00;;;;;;5020300;28;20209;-90